Time;durP1;ratioP1;P1;durP2;ratioP2;P2;SDS_P1;SDS_P2;PMS_P1;PMS_P2;Temp;Humidity;BMP_temperature;BMP_pressure;BME280_temperature;BME280_humidity;BME280_pressure;Samples;Min_cycle;Max_cycle;Signal;HPM_P1;HPM_P2
2021/12/26 00:02:08;;;;;;;5.43;3.33;;;20.60;58.30;;;;;;4966199;28;86403;-83
2021/12/26 00:04:43;;;;;;;5.35;3.58;;;20.60;58.30;;;;;;4965644;28;86630;-84
2021/12/26 00:07:09;;;;;;;4.43;3.47;;;20.50;58.30;;;;;;4965933;28;86467;-88
2021/12/26 00:09:34;;;;;;;4.38;3.10;;;20.50;58.40;;;;;;4965507;28;86189;-89
2021/12/26 00:12:01;;;;;;;4.85;3.33;;;20.50;58.30;;;;;;4963912;28;85751;-85
2021/12/26 00:14:27;;;;;;;5.00;3.45;;;20.50;58.40;;;;;;4962452;28;86603;-86
2021/12/26 00:16:53;;;;;;;4.70;3.15;;;20.50;58.30;;;;;;4963846;28;86184;-89
2021/12/26 00:19:18;;;;;;;4.95;3.15;;;20.50;58.30;;;;;;4964984;28;86160;-92
2021/12/26 00:21:44;;;;;;;3.95;3.30;;;20.50;58.30;;;;;;4964384;28;85603;-88
2021/12/26 00:24:10;;;;;;;4.60;3.55;;;20.50;58.40;;;;;;4963881;28;86455;-88
2021/12/26 00:26:37;;;;;;;4.00;3.10;;;20.50;58.30;;;;;;4969379;28;87075;-88
2021/12/26 00:29:04;;;;;;;4.90;3.20;;;20.50;58.30;;;;;;4962439;28;86252;-83
2021/12/26 00:31:30;;;;;;;6.30;3.88;;;20.40;58.30;;;;;;4962429;28;86712;-90
2021/12/26 00:33:56;;;;;;;5.70;3.58;;;20.40;58.30;;;;;;4962753;28;86256;-83
2021/12/26 00:36:21;;;;;;;6.05;3.55;;;20.40;58.20;;;;;;4960863;28;88793;-88
2021/12/26 00:38:47;;;;;;;3.88;3.25;;;20.40;58.20;;;;;;4963632;28;85569;-93
2021/12/26 00:41:13;;;;;;;4.10;3.05;;;20.40;58.10;;;;;;4963498;28;85585;-91
2021/12/26 00:43:38;;;;;;;4.45;3.33;;;20.40;58.20;;;;;;4963573;28;86638;-89
2021/12/26 00:46:04;;;;;;;5.90;3.22;;;20.40;58.20;;;;;;4962173;28;87879;-88
2021/12/26 00:48:33;;;;;;;3.95;3.10;;;20.40;58.20;;;;;;4962982;28;85994;-92
2021/12/26 00:51:00;;;;;;;4.13;3.25;;;20.40;58.30;;;;;;4964119;28;85843;-92
2021/12/26 00:53:28;;;;;;;4.85;3.40;;;20.40;58.00;;;;;;4962268;28;89583;-88
2021/12/26 00:55:53;;;;;;;3.92;3.00;;;20.40;58.10;;;;;;4962941;28;86215;-89
2021/12/26 00:58:20;;;;;;;4.78;3.35;;;20.40;58.10;;;;;;4962733;28;86922;-83
2021/12/26 01:00:49;;;;;;;4.43;3.10;;;20.40;58.00;;;;;;4962429;28;85941;-92
2021/12/26 01:03:16;;;;;;;4.38;3.38;;;20.30;57.70;;;;;;4961223;28;90473;-87
2021/12/26 01:05:44;;;;;;;5.05;3.20;;;20.40;58.00;;;;;;4962995;28;86314;-90
2021/12/26 01:08:13;;;;;;;4.30;3.17;;;20.30;57.90;;;;;;4962578;28;85846;-84
2021/12/26 01:10:54;;;;;;;4.03;3.10;;;20.30;57.70;;;;;;4963610;28;86204;-84
2021/12/26 01:13:28;;;;;;;3.25;2.70;;;20.30;57.60;;;;;;4963122;28;86871;-84
2021/12/26 01:15:59;;;;;;;4.00;3.13;;;20.30;57.60;;;;;;4963104;28;86747;-83
2021/12/26 01:18:28;;;;;;;5.00;3.17;;;20.30;57.60;;;;;;4962578;28;86202;-87
2021/12/26 01:21:00;;;;;;;5.43;3.10;;;20.30;57.70;;;;;;4960066;28;86286;-90
2021/12/26 01:23:27;;;;;;;4.43;3.22;;;20.30;57.60;;;;;;4960404;28;89993;-89
2021/12/26 01:25:53;;;;;;;4.45;3.22;;;20.30;57.60;;;;;;4960547;28;85874;-95
2021/12/26 01:28:21;;;;;;;4.40;2.90;;;20.30;57.50;;;;;;4961342;28;85458;-85
2021/12/26 01:30:48;;;;;;;3.55;3.03;;;20.30;57.50;;;;;;4961101;28;86491;-91
2021/12/26 01:33:16;;;;;;;2.92;2.53;;;20.30;57.50;;;;;;4961098;28;88334;-85
2021/12/26 01:35:42;;;;;;;3.72;3.30;;;20.20;57.40;;;;;;4960923;28;86310;-87
2021/12/26 01:38:13;;;;;;;4.15;2.90;;;20.20;57.40;;;;;;4959532;28;86853;-87
2021/12/26 01:40:48;;;;;;;3.55;3.00;;;20.20;57.30;;;;;;4961274;28;86324;-92
2021/12/26 01:43:16;;;;;;;3.00;2.70;;;20.20;57.30;;;;;;4961298;28;86835;-88
2021/12/26 01:45:42;;;;;;;3.42;3.05;;;20.20;57.40;;;;;;4960256;28;86540;-83
2021/12/26 01:48:09;;;;;;;4.40;3.00;;;20.20;57.50;;;;;;4960393;28;86355;-92
2021/12/26 01:50:36;;;;;;;3.88;2.90;;;20.20;57.40;;;;;;4961498;28;86650;-91
2021/12/26 01:53:03;;;;;;;3.10;2.58;;;20.20;58.00;;;;;;4958864;28;89564;-91
2021/12/26 01:55:44;;;;;;;3.58;2.80;;;20.20;57.30;;;;;;4960929;28;86114;-88
2021/12/26 01:58:27;;;;;;;3.47;2.70;;;20.20;57.30;;;;;;4961806;28;85559;-86
2021/12/26 02:01:20;;;;;;;4.28;3.05;;;20.20;57.50;;;;;;4960960;28;86617;-92
2021/12/26 02:03:46;;;;;;;4.55;3.35;;;20.20;57.40;;;;;;4975116;28;86744;-89
2021/12/26 02:06:11;;;;;;;3.72;2.97;;;20.10;57.20;;;;;;4961299;28;86747;-89
2021/12/26 02:08:37;;;;;;;4.85;2.88;;;20.20;57.20;;;;;;4961244;28;85796;-85
2021/12/26 02:11:04;;;;;;;3.75;3.08;;;20.10;57.30;;;;;;4961645;28;85745;-89
2021/12/26 02:13:30;;;;;;;3.85;3.00;;;20.20;57.10;;;;;;4959233;28;86640;-89
2021/12/26 02:15:56;;;;;;;4.78;2.92;;;20.20;57.10;;;;;;4959856;28;85965;-83
2021/12/26 02:18:22;;;;;;;3.80;3.15;;;20.10;57.10;;;;;;4959928;28;86489;-87
2021/12/26 02:23:30;;;;;;;3.55;2.65;;;20.10;57.10;;;;;;4959835;28;87452;-89
2021/12/26 02:28:42;;;;;;;3.30;3.00;;;20.10;57.10;;;;;;4960633;28;86480;-83
2021/12/26 02:31:08;;;;;;;3.72;2.72;;;20.10;57.10;;;;;;4961203;28;86422;-88
2021/12/26 02:33:35;;;;;;;3.35;2.67;;;20.10;57.00;;;;;;4959997;28;86138;-83
2021/12/26 02:36:01;;;;;;;3.97;3.00;;;20.10;56.90;;;;;;4961468;28;86276;-90
2021/12/26 02:38:27;;;;;;;2.90;2.47;;;20.10;57.10;;;;;;4960847;28;86119;-84
2021/12/26 02:40:55;;;;;;;3.20;2.90;;;20.00;56.90;;;;;;4961239;28;86355;-83
2021/12/26 02:43:24;;;;;;;3.20;2.80;;;20.10;56.90;;;;;;4961445;28;86228;-86
2021/12/26 02:45:50;;;;;;;3.45;2.70;;;20.10;57.00;;;;;;4958411;28;86512;-83
2021/12/26 02:48:17;;;;;;;2.85;2.53;;;20.10;57.00;;;;;;4952491;28;86880;-82
2021/12/26 02:50:44;;;;;;;3.40;2.45;;;20.00;56.90;;;;;;4955256;28;86111;-82
2021/12/26 02:53:21;;;;;;;3.40;3.10;;;20.00;56.90;;;;;;4954383;28;86535;-81
2021/12/26 02:55:52;;;;;;;3.53;2.67;;;20.00;57.00;;;;;;4955051;28;85818;-83
2021/12/26 02:58:19;;;;;;;3.80;3.00;;;20.00;57.00;;;;;;4953218;28;86579;-81
2021/12/26 03:00:59;;;;;;;3.15;2.72;;;20.00;56.90;;;;;;4953780;28;85839;-81
2021/12/26 03:03:25;;;;;;;3.08;2.70;;;20.00;56.90;;;;;;4954999;28;86524;-81
2021/12/26 03:06:02;;;;;;;3.30;2.53;;;20.00;56.90;;;;;;4955248;28;86197;-82
2021/12/26 03:08:28;;;;;;;3.70;2.88;;;20.00;56.90;;;;;;4955641;28;86543;-84
2021/12/26 03:10:54;;;;;;;3.35;2.80;;;20.00;56.90;;;;;;4955724;28;86180;-85
2021/12/26 03:13:21;;;;;;;3.53;2.85;;;20.00;57.40;;;;;;4954799;28;87170;-86
2021/12/26 03:15:54;;;;;;;2.95;2.65;;;19.90;56.90;;;;;;4953612;28;89191;-82
2021/12/26 03:18:20;;;;;;;4.55;2.95;;;20.00;56.90;;;;;;4956126;28;85910;-81
2021/12/26 03:20:47;;;;;;;2.85;2.55;;;19.90;56.70;;;;;;4955268;28;86672;-81
2021/12/26 03:23:16;;;;;;;2.92;2.55;;;19.90;56.70;;;;;;4956431;28;86533;-81
2021/12/26 03:25:42;;;;;;;3.53;2.70;;;19.90;56.60;;;;;;4955764;28;86150;-82
2021/12/26 03:28:09;;;;;;;3.10;2.60;;;19.90;56.80;;;;;;4954010;28;86594;-83
2021/12/26 03:30:36;;;;;;;3.70;3.10;;;19.90;56.70;;;;;;4955125;28;86280;-81
2021/12/26 03:33:05;;;;;;;3.40;2.60;;;19.90;56.80;;;;;;4955599;28;86763;-83
2021/12/26 03:35:32;;;;;;;4.05;2.80;;;19.90;56.80;;;;;;4955708;28;86498;-81
2021/12/26 03:37:59;;;;;;;3.30;2.40;;;19.90;56.80;;;;;;4953443;28;86242;-80
2021/12/26 03:40:25;;;;;;;2.88;2.55;;;19.90;56.70;;;;;;4954655;28;86326;-81
2021/12/26 03:42:53;;;;;;;3.05;2.60;;;19.90;56.80;;;;;;4954335;28;86707;-82
2021/12/26 03:45:20;;;;;;;3.28;2.50;;;19.90;56.80;;;;;;4952082;28;89335;-85
2021/12/26 03:47:49;;;;;;;4.07;2.78;;;19.90;56.70;;;;;;4953604;28;87304;-82
2021/12/26 03:50:18;;;;;;;2.60;2.40;;;19.90;56.90;;;;;;4953711;28;87663;-81
2021/12/26 03:52:50;;;;;;;2.45;2.17;;;19.90;56.70;;;;;;4952081;28;87433;-82
2021/12/26 03:55:20;;;;;;;4.25;2.70;;;19.80;56.60;;;;;;4951198;28;91439;-82
2021/12/26 03:57:46;;;;;;;2.72;2.50;;;19.80;56.60;;;;;;4953400;28;88373;-82
2021/12/26 04:00:14;;;;;;;2.45;2.25;;;19.90;56.70;;;;;;4954001;28;88079;-82
2021/12/26 04:02:42;;;;;;;3.75;2.70;;;19.80;56.70;;;;;;4953542;28;87851;-82
2021/12/26 04:05:08;;;;;;;2.30;2.10;;;19.80;56.90;;;;;;4953349;28;88712;-83
2021/12/26 04:07:33;;;;;;;3.47;2.42;;;19.80;56.60;;;;;;4954142;28;87212;-82
2021/12/26 04:09:59;;;;;;;3.97;2.75;;;19.80;56.70;;;;;;4953310;28;88208;-87
2021/12/26 04:12:25;;;;;;;3.33;2.38;;;19.80;56.50;;;;;;4953102;28;86733;-82
2021/12/26 04:15:00;;;;;;;2.80;2.30;;;19.80;56.40;;;;;;4953249;28;87799;-83
2021/12/26 04:17:25;;;;;;;3.42;2.47;;;19.80;56.30;;;;;;4951453;28;89061;-81
2021/12/26 04:19:51;;;;;;;2.88;2.55;;;19.80;56.40;;;;;;4953102;28;88862;-81
2021/12/26 04:22:16;;;;;;;3.33;2.67;;;19.80;56.40;;;;;;4952772;28;87138;-81
2021/12/26 04:24:50;;;;;;;2.60;2.25;;;19.80;56.50;;;;;;4952947;28;87555;-86
2021/12/26 04:27:15;;;;;;;2.63;2.35;;;19.80;56.50;;;;;;4952868;28;87857;-85
2021/12/26 04:29:41;;;;;;;3.08;2.75;;;19.80;56.50;;;;;;4954135;28;86859;-81
2021/12/26 04:32:07;;;;;;;2.85;2.55;;;19.80;56.50;;;;;;4953807;28;87832;-84
2021/12/26 04:34:33;;;;;;;2.85;2.40;;;19.70;56.40;;;;;;4954106;28;87668;-85
2021/12/26 04:36:58;;;;;;;2.85;2.40;;;19.80;56.40;;;;;;4952442;28;88833;-82
2021/12/26 04:39:24;;;;;;;3.03;2.65;;;19.70;56.50;;;;;;4953448;28;87625;-82
2021/12/26 04:41:50;;;;;;;3.13;2.58;;;19.70;56.40;;;;;;4953412;28;87371;-84
2021/12/26 04:44:18;;;;;;;2.75;2.40;;;19.70;56.40;;;;;;4952730;28;89952;-81
2021/12/26 04:46:44;;;;;;;2.75;2.45;;;19.70;56.40;;;;;;4952261;28;91170;-84
2021/12/26 04:49:10;;;;;;;2.88;2.58;;;19.70;56.30;;;;;;4953208;28;87139;-85
2021/12/26 04:51:35;;;;;;;2.70;2.50;;;19.70;56.40;;;;;;4953805;28;88126;-81
2021/12/26 04:54:02;;;;;;;2.50;2.15;;;19.70;56.50;;;;;;4952427;28;87552;-83
2021/12/26 04:56:27;;;;;;;3.03;2.65;;;19.70;56.30;;;;;;4952569;28;87957;-81
2021/12/26 04:58:53;;;;;;;2.58;2.38;;;19.70;56.30;;;;;;4953334;28;87911;-84
2021/12/26 05:01:19;;;;;;;2.80;2.60;;;19.70;56.30;;;;;;4953365;28;86333;-83
2021/12/26 05:03:44;;;;;;;3.17;2.67;;;19.70;56.30;;;;;;4952734;28;87625;-82
2021/12/26 05:06:10;;;;;;;2.20;2.00;;;19.70;56.30;;;;;;4950664;28;91055;-83
2021/12/26 05:08:36;;;;;;;2.58;2.38;;;19.60;56.30;;;;;;4952861;28;88009;-85
2021/12/26 05:11:09;;;;;;;2.58;2.38;;;19.70;56.40;;;;;;4952551;28;88597;-82
2021/12/26 05:13:35;;;;;;;3.03;2.45;;;19.70;56.40;;;;;;4952446;28;90345;-84
2021/12/26 05:16:01;;;;;;;2.67;2.47;;;19.60;56.20;;;;;;4951524;28;89737;-86
2021/12/26 05:18:26;;;;;;;2.42;2.15;;;19.60;56.20;;;;;;4953305;28;87028;-83
2021/12/26 05:20:52;;;;;;;2.50;2.30;;;19.60;56.40;;;;;;4951952;28;89257;-87
2021/12/26 05:23:18;;;;;;;3.08;2.25;;;19.60;56.30;;;;;;4953310;28;87743;-81
2021/12/26 05:25:43;;;;;;;2.90;2.40;;;19.60;56.30;;;;;;4953495;28;89269;-85
2021/12/26 05:28:09;;;;;;;2.80;2.40;;;19.60;56.40;;;;;;4952823;28;87651;-84
2021/12/26 05:30:35;;;;;;;2.30;2.00;;;19.60;56.40;;;;;;4939019;28;89453;-84
2021/12/26 05:33:00;;;;;;;2.58;2.38;;;19.60;56.30;;;;;;4950303;28;91120;-82
2021/12/26 05:35:27;;;;;;;2.80;2.22;;;19.60;56.20;;;;;;4953709;28;88775;-83
2021/12/26 05:37:53;;;;;;;2.33;2.13;;;19.60;56.10;;;;;;4953882;28;87377;-81
2021/12/26 05:40:19;;;;;;;3.05;2.70;;;19.60;56.20;;;;;;4953912;28;87433;-86
2021/12/26 05:42:44;;;;;;;2.53;2.33;;;19.60;56.00;;;;;;4952724;28;87637;-81
2021/12/26 05:45:12;;;;;;;2.60;2.35;;;19.60;56.20;;;;;;4952595;28;87912;-82
2021/12/26 05:47:37;;;;;;;3.17;2.50;;;19.60;56.20;;;;;;4952053;28;87886;-82
2021/12/26 05:50:05;;;;;;;2.38;2.13;;;19.50;56.10;;;;;;4954192;28;86759;-81
2021/12/26 05:52:32;;;;;;;2.25;2.05;;;19.60;56.20;;;;;;4952822;28;87805;-81
2021/12/26 05:54:57;;;;;;;2.22;2.03;;;19.50;56.20;;;;;;4951597;28;90671;-82
2021/12/26 05:57:31;;;;;;;2.75;2.40;;;19.50;56.20;;;;;;4951606;28;88676;-81
2021/12/26 05:59:57;;;;;;;2.67;2.28;;;19.50;56.10;;;;;;4952464;28;88003;-81
2021/12/26 06:02:23;;;;;;;2.90;2.60;;;19.50;56.20;;;;;;4952809;28;87844;-80
2021/12/26 06:04:49;;;;;;;2.58;2.38;;;19.50;56.20;;;;;;4952960;28;87791;-82
2021/12/26 06:07:15;;;;;;;2.13;1.92;;;19.50;56.20;;;;;;4951380;28;87612;-87
2021/12/26 06:09:41;;;;;;;2.30;2.10;;;19.50;56.20;;;;;;4951964;28;89152;-84
2021/12/26 06:12:07;;;;;;;2.40;2.20;;;19.50;56.20;;;;;;4953861;28;88111;-80
2021/12/26 06:14:33;;;;;;;2.78;2.40;;;19.50;56.10;;;;;;4951155;28;87997;-80
2021/12/26 06:16:58;;;;;;;2.97;2.47;;;19.50;56.30;;;;;;4953754;28;87407;-85
2021/12/26 06:19:24;;;;;;;2.58;2.35;;;19.50;56.20;;;;;;4953275;28;87487;-85
2021/12/26 06:21:50;;;;;;;2.28;2.08;;;19.50;56.10;;;;;;4950908;28;91331;-84
2021/12/26 06:24:15;;;;;;;2.45;2.25;;;19.50;56.10;;;;;;4953422;28;87058;-82
2021/12/26 06:26:41;;;;;;;2.30;2.10;;;19.50;56.10;;;;;;4952122;28;88085;-81
2021/12/26 06:29:07;;;;;;;2.72;2.38;;;19.50;56.30;;;;;;4951937;28;87497;-81
2021/12/26 06:31:33;;;;;;;2.95;2.60;;;19.40;56.10;;;;;;4953389;28;88259;-81
2021/12/26 06:34:02;;;;;;;2.38;2.17;;;19.40;56.00;;;;;;4953455;28;88532;-82
2021/12/26 06:36:28;;;;;;;2.83;2.50;;;19.40;56.00;;;;;;4951761;28;87174;-84
2021/12/26 06:38:54;;;;;;;4.97;3.35;;;19.40;56.10;;;;;;4951744;28;89421;-83
2021/12/26 06:41:26;;;;;;;4.65;2.47;;;19.40;56.10;;;;;;4952794;28;87700;-82
2021/12/26 06:43:52;;;;;;;2.72;2.28;;;19.50;56.10;;;;;;4951209;28;90953;-86
2021/12/26 06:46:18;;;;;;;2.60;2.40;;;19.60;56.40;;;;;;4954738;28;88863;-82
2021/12/26 06:48:44;;;;;;;3.17;2.47;;;19.60;56.40;;;;;;4952313;28;87549;-90
2021/12/26 06:51:10;;;;;;;3.17;2.10;;;19.60;56.40;;;;;;4951810;28;88008;-80
2021/12/26 06:53:36;;;;;;;4.35;2.60;;;19.70;56.50;;;;;;4951276;28;87953;-86
2021/12/26 06:56:04;;;;;;;3.88;2.40;;;19.80;56.70;;;;;;4951242;28;87426;-86
2021/12/26 06:58:30;;;;;;;2.20;2.00;;;19.80;56.60;;;;;;4949934;28;87881;-83
2021/12/26 07:00:56;;;;;;;2.72;2.25;;;19.90;56.90;;;;;;4949686;28;91354;-83
2021/12/26 07:03:21;;;;;;;5.38;2.08;;;19.90;57.10;;;;;;4951942;28;87420;-81
2021/12/26 07:05:47;;;;;;;2.75;2.20;;;19.90;57.10;;;;;;4949597;28;87514;-81
2021/12/26 07:08:13;;;;;;;3.58;2.17;;;19.90;57.10;;;;;;4949917;28;88221;-82
2021/12/26 07:10:38;;;;;;;2.17;1.95;;;20.00;57.10;;;;;;4950363;28;88551;-82
2021/12/26 07:13:04;;;;;;;3.28;1.77;;;20.00;57.20;;;;;;4952087;28;89373;-86
2021/12/26 07:15:30;;;;;;;2.20;2.00;;;20.00;57.30;;;;;;4955993;28;87830;-85
2021/12/26 07:17:56;;;;;;;2.38;1.85;;;20.00;56.80;;;;;;4957324;28;86972;-83
2021/12/26 07:20:22;;;;;;;3.03;1.77;;;20.00;56.90;;;;;;4955998;28;88120;-85
2021/12/26 07:22:47;;;;;;;3.70;1.80;;;20.00;56.70;;;;;;4957056;28;87902;-83
2021/12/26 07:25:14;;;;;;;2.35;2.15;;;20.00;56.60;;;;;;4958083;28;86951;-82
2021/12/26 07:27:44;;;;;;;2.08;1.88;;;20.00;56.40;;;;;;4959057;28;86344;-87
2021/12/26 07:30:13;;;;;;;2.90;2.17;;;20.00;56.40;;;;;;4958197;28;89040;-81
2021/12/26 07:32:39;;;;;;;3.80;2.10;;;20.00;56.40;;;;;;4959728;28;87757;-85
2021/12/26 07:35:06;;;;;;;2.40;2.20;;;20.10;56.30;;;;;;4960873;28;88325;-89
2021/12/26 07:37:31;;;;;;;2.60;2.30;;;20.10;56.20;;;;;;4962118;28;87619;-85
2021/12/26 07:39:57;;;;;;;3.83;2.65;;;20.00;56.00;;;;;;4945318;28;90587;-89
2021/12/26 07:42:23;;;;;;;6.55;2.60;;;20.00;56.20;;;;;;4961196;28;87951;-82
2021/12/26 07:44:50;;;;;;;3.58;2.40;;;20.00;55.70;;;;;;4960980;28;86904;-85
2021/12/26 07:47:16;;;;;;;3.90;2.60;;;20.00;55.90;;;;;;4962720;28;87874;-87
2021/12/26 07:49:41;;;;;;;4.75;2.83;;;20.00;55.60;;;;;;4961338;28;88962;-90
2021/12/26 07:52:22;;;;;;;6.38;2.97;;;20.00;55.50;;;;;;4961649;28;86549;-86
2021/12/26 07:54:48;;;;;;;8.57;2.70;;;20.10;55.70;;;;;;4955880;28;87100;-87
2021/12/26 07:57:14;;;;;;;7.30;2.53;;;20.00;55.30;;;;;;4955129;28;87826;-93
2021/12/26 07:59:41;;;;;;;11.73;2.80;;;20.00;55.40;;;;;;4954489;28;89114;-81
2021/12/26 08:02:06;;;;;;;9.20;2.92;;;20.00;55.40;;;;;;4953240;28;87179;-86
2021/12/26 08:04:35;;;;;;;7.07;2.75;;;20.00;55.40;;;;;;4962095;28;87568;-84
2021/12/26 08:07:00;;;;;;;9.02;3.83;;;20.10;55.40;;;;;;4959914;28;87698;-84
2021/12/26 08:09:27;;;;;;;30.42;6.20;;;20.00;55.70;;;;;;4959112;28;87248;-89
2021/12/26 08:11:52;;;;;;;19.83;5.80;;;20.10;54.90;;;;;;4962454;28;88089;-89
2021/12/26 08:14:19;;;;;;;18.85;5.00;;;20.00;55.40;;;;;;4960876;28;87649;-90
2021/12/26 08:16:49;;;;;;;24.05;5.05;;;20.00;55.70;;;;;;4948857;28;88088;-81
2021/12/26 08:19:14;;;;;;;27.85;5.53;;;20.00;56.20;;;;;;4960938;28;87857;-81
2021/12/26 08:21:40;;;;;;;22.23;6.57;;;20.00;56.50;;;;;;4962294;28;87749;-86
2021/12/26 08:24:06;;;;;;;21.90;5.97;;;20.00;55.10;;;;;;4958473;28;88699;-87
2021/12/26 08:26:34;;;;;;;61.88;10.15;;;20.00;56.80;;;;;;4961577;28;87082;-88
2021/12/26 08:29:00;;;;;;;31.50;8.35;;;20.00;61.10;;;;;;4952693;28;88195;-86
2021/12/26 08:31:26;;;;;;;26.08;7.65;;;20.00;58.20;;;;;;4953849;28;87898;-87
2021/12/26 08:33:51;;;;;;;24.70;6.50;;;20.00;57.60;;;;;;4954422;28;87840;-87
2021/12/26 08:36:21;;;;;;;29.20;10.25;;;20.00;57.50;;;;;;4952355;28;89612;-86
2021/12/26 08:38:49;;;;;;;20.88;7.38;;;20.10;55.00;;;;;;4953459;28;87513;-89
2021/12/26 08:41:15;;;;;;;37.42;9.13;;;20.10;56.80;;;;;;4953654;28;87300;-91
2021/12/26 08:43:43;;;;;;;23.42;7.15;;;20.10;57.10;;;;;;4903007;28;87498;-88
2021/12/26 08:46:10;;;;;;;26.05;7.20;;;20.20;57.70;;;;;;4953368;28;88072;-87
2021/12/26 08:48:40;;;;;;;26.70;7.50;;;20.20;58.00;;;;;;4952628;28;88614;-86
2021/12/26 08:51:06;;;;;;;33.78;9.55;;;20.20;58.00;;;;;;4952576;28;88693;-92
2021/12/26 08:53:32;;;;;;;29.35;8.50;;;20.30;57.00;;;;;;4952536;28;87518;-83
2021/12/26 08:55:59;;;;;;;26.02;8.55;;;20.40;57.80;;;;;;4948213;28;87531;-86
2021/12/26 08:58:25;;;;;;;30.45;8.82;;;20.30;57.90;;;;;;4951822;28;88137;-88
2021/12/26 09:00:51;;;;;;;20.00;7.45;;;20.40;58.30;;;;;;4949111;28;90202;-86
2021/12/26 09:03:17;;;;;;;23.95;10.60;;;20.50;58.40;;;;;;4950535;28;88050;-85
2021/12/26 09:05:43;;;;;;;25.38;9.07;;;20.40;51.10;;;;;;4953386;28;88569;-86
2021/12/26 09:08:10;;;;;;;27.25;8.15;;;20.40;55.20;;;;;;4952167;28;90359;-92
2021/12/26 09:10:38;;;;;;;24.63;7.85;;;20.50;56.90;;;;;;4953901;28;87657;-86
2021/12/26 09:13:05;;;;;;;26.73;8.27;;;20.50;57.10;;;;;;4952185;28;87919;-85
2021/12/26 09:15:30;;;;;;;22.92;7.70;;;20.50;57.30;;;;;;4953067;28;87258;-84
2021/12/26 09:17:56;;;;;;;31.38;8.73;;;20.60;57.40;;;;;;4952383;28;87608;-84
2021/12/26 09:20:23;;;;;;;25.33;9.23;;;20.60;63.00;;;;;;4953816;28;87948;-87
2021/12/26 09:22:49;;;;;;;21.58;9.18;;;20.60;67.90;;;;;;4951685;28;88726;-87
2021/12/26 09:25:15;;;;;;;21.83;8.20;;;20.60;76.60;;;;;;4952340;28;87893;-85
2021/12/26 09:27:48;;;;;;;28.88;11.05;;;20.60;72.10;;;;;;4948866;28;90235;-84
2021/12/26 09:30:14;;;;;;;23.95;10.75;;;20.50;70.80;;;;;;4952310;28;87101;-84
2021/12/26 09:32:41;;;;;;;20.58;11.05;;;20.30;67.10;;;;;;4950359;28;87787;-87
2021/12/26 09:35:07;;;;;;;19.58;11.07;;;20.20;67.20;;;;;;4953611;28;87773;-91
2021/12/26 09:37:33;;;;;;;22.25;11.05;;;20.00;65.70;;;;;;4951418;28;90416;-86
2021/12/26 09:39:59;;;;;;;19.42;9.13;;;20.00;59.40;;;;;;4949926;28;88437;-91
2021/12/26 09:42:25;;;;;;;20.83;9.35;;;19.90;57.20;;;;;;4952485;28;87535;-90
2021/12/26 09:44:51;;;;;;;18.33;9.52;;;19.80;56.20;;;;;;4951653;28;89338;-82
2021/12/26 09:47:17;;;;;;;22.60;11.35;;;19.80;55.60;;;;;;4948969;28;90785;-87
2021/12/26 09:49:43;;;;;;;21.02;9.82;;;19.80;58.00;;;;;;4949719;28;87628;-84
2021/12/26 09:52:09;;;;;;;15.57;10.38;;;19.80;55.70;;;;;;4950848;28;87623;-88
2021/12/26 09:54:35;;;;;;;17.48;9.95;;;19.70;54.00;;;;;;4953601;28;86983;-86
2021/12/26 09:57:01;;;;;;;16.05;9.00;;;19.70;54.30;;;;;;4953919;28;90742;-88
2021/12/26 09:59:37;;;;;;;13.05;8.52;;;19.70;52.90;;;;;;4950704;28;88036;-89
2021/12/26 10:02:14;;;;;;;10.05;8.10;;;19.70;52.40;;;;;;4948832;28;88444;-85
2021/12/26 10:04:45;;;;;;;12.82;8.27;;;19.80;52.60;;;;;;4952007;28;87878;-86
2021/12/26 10:07:20;;;;;;;13.05;7.55;;;19.80;51.20;;;;;;4950871;28;90739;-89
2021/12/26 10:09:49;;;;;;;8.38;5.45;;;19.90;53.60;;;;;;4951540;28;87576;-86
2021/12/26 10:12:16;;;;;;;15.13;5.25;;;20.00;55.70;;;;;;4951478;28;87730;-87
2021/12/26 10:14:46;;;;;;;12.35;5.10;;;20.10;56.10;;;;;;4951589;28;88028;-84
2021/12/26 10:17:15;;;;;;;15.65;5.90;;;20.20;56.40;;;;;;4952032;28;87651;-82
2021/12/26 10:19:44;;;;;;;12.52;5.68;;;20.20;56.90;;;;;;4952275;28;87329;-88
2021/12/26 10:22:12;;;;;;;8.55;4.13;;;20.20;56.10;;;;;;4951171;28;87858;-86
2021/12/26 10:24:52;;;;;;;12.73;5.85;;;20.30;57.00;;;;;;4952971;28;87769;-90
2021/12/26 10:27:23;;;;;;;16.92;7.07;;;20.30;56.20;;;;;;4951832;28;88569;-84
2021/12/26 10:29:54;;;;;;;14.70;7.13;;;20.30;55.40;;;;;;4952318;28;88667;-87
2021/12/26 10:32:33;;;;;;;12.23;6.00;;;20.30;54.50;;;;;;4951714;28;87447;-85
2021/12/26 10:35:05;;;;;;;;;;;20.30;54.00;;;;;;4953118;28;87364;-87
2021/12/26 10:37:46;;;;;;;11.88;5.72;;;20.30;53.90;;;;;;4952874;28;87007;-88
2021/12/26 10:40:23;;;;;;;29.30;10.35;;;20.30;55.20;;;;;;4952450;28;87623;-83
2021/12/26 10:42:56;;;;;;;46.22;13.65;;;20.40;54.40;;;;;;4950138;28;87711;-88
2021/12/26 10:45:28;;;;;;;37.60;11.68;;;20.40;54.10;;;;;;4952805;28;86977;-88
2021/12/26 10:48:00;;;;;;;37.85;12.13;;;20.40;55.20;;;;;;4952681;28;87583;-86
2021/12/26 10:50:28;;;;;;;26.42;9.52;;;20.40;53.90;;;;;;4960157;28;90563;-86
2021/12/26 10:53:06;;;;;;;22.33;8.80;;;20.50;54.90;;;;;;4960210;28;88823;-90
2021/12/26 10:55:43;;;;;;;29.15;9.02;;;20.50;55.30;;;;;;4956062;28;87586;-89
2021/12/26 10:58:12;;;;;;;22.27;8.90;;;20.50;53.80;;;;;;4954526;28;88101;-88
2021/12/26 11:00:41;;;;;;;23.65;8.32;;;20.50;54.10;;;;;;4955151;28;88479;-84
2021/12/26 11:03:10;;;;;;;20.00;7.63;;;20.50;54.60;;;;;;4955608;28;86922;-89
2021/12/26 11:05:42;;;;;;;23.50;7.78;;;20.50;55.70;;;;;;4954516;28;88171;-86
2021/12/26 11:08:14;;;;;;;24.55;7.78;;;20.50;56.00;;;;;;4954836;28;87007;-85
2021/12/26 11:10:46;;;;;;;21.42;7.40;;;20.50;56.40;;;;;;4955720;28;86490;-84
2021/12/26 11:13:25;;;;;;;21.88;7.03;;;20.50;56.60;;;;;;4954620;28;87015;-87
2021/12/26 11:15:58;;;;;;;22.92;8.30;;;20.50;56.90;;;;;;4954989;28;87780;-83
2021/12/26 11:18:25;;;;;;;22.27;8.10;;;20.50;57.00;;;;;;4955114;28;87941;-89
2021/12/26 11:20:58;;;;;;;21.15;7.53;;;20.50;57.20;;;;;;4954498;28;88843;-83
2021/12/26 11:23:30;;;;;;;23.48;7.85;;;20.50;56.90;;;;;;4952749;28;87558;-85
2021/12/26 11:26:07;;;;;;;21.95;7.70;;;20.50;57.10;;;;;;4951057;28;89737;-88
2021/12/26 11:28:40;;;;;;;18.20;7.65;;;20.50;57.20;;;;;;4953058;28;90714;-87
2021/12/26 11:31:09;;;;;;;25.52;8.82;;;20.50;57.10;;;;;;4954056;28;87718;-90
2021/12/26 11:33:44;;;;;;;20.85;7.82;;;20.50;55.90;;;;;;4951777;28;88862;-83
2021/12/26 11:36:11;;;;;;;16.17;7.28;;;20.50;56.30;;;;;;4954016;28;87396;-85
2021/12/26 11:38:38;;;;;;;17.00;7.10;;;20.50;56.70;;;;;;4954894;28;87936;-86
2021/12/26 11:41:07;;;;;;;22.83;7.65;;;20.50;56.90;;;;;;4953572;28;89876;-87
2021/12/26 11:43:56;;;;;;;18.77;7.65;;;20.50;57.20;;;;;;4953755;28;88548;-86
2021/12/26 11:46:58;;;;;;;23.43;7.17;;;20.50;57.30;;;;;;4952933;28;88242;-88
2021/12/26 11:49:50;;;;;;;15.93;6.80;;;20.60;57.40;;;;;;4864777;28;90606;-85
2021/12/26 11:52:27;;;;;;;23.17;8.15;;;20.60;57.60;;;;;;4953416;28;87787;-87
2021/12/26 11:55:14;;;;;;;25.60;8.10;;;20.60;57.70;;;;;;4954679;28;87403;-86
2021/12/26 11:58:20;;;;;;;30.38;7.97;;;20.60;57.60;;;;;;4952290;28;89301;-86
2021/12/26 12:01:00;;;;;;;19.98;8.23;;;20.60;57.10;;;;;;4952010;28;87602;-84
2021/12/26 12:03:29;;;;;;;22.85;8.80;;;20.60;57.10;;;;;;4953074;28;87192;-85
2021/12/26 12:05:55;;;;;;;25.03;9.43;;;20.60;56.70;;;;;;4951557;28;87306;-81
2021/12/26 12:08:27;;;;;;;25.90;9.90;;;20.60;58.60;;;;;;4951549;28;87748;-83
2021/12/26 12:10:54;;;;;;;23.73;8.32;;;20.50;60.90;;;;;;4946948;28;90667;-87
2021/12/26 12:13:23;;;;;;;37.00;9.65;;;20.50;60.60;;;;;;4953147;28;88351;-82
2021/12/26 12:15:56;;;;;;;26.83;10.17;;;20.50;61.40;;;;;;4953897;28;87691;-85
2021/12/26 12:18:29;;;;;;;32.97;11.52;;;20.50;60.60;;;;;;4952923;28;87913;-87
2021/12/26 12:21:16;;;;;;;29.90;11.15;;;20.60;61.80;;;;;;4897897;28;90104;-84
2021/12/26 12:24:36;;;;;;;29.20;10.63;;;20.60;61.80;;;;;;4925627;28;96384;-84
2021/12/26 12:27:09;;;;;;;29.30;11.70;;;20.60;61.60;;;;;;4901663;28;87126;-82
2021/12/26 12:29:49;;;;;;;33.75;10.02;;;20.60;61.70;;;;;;4945197;28;86912;-81
2021/12/26 12:32:18;;;;;;;23.55;9.57;;;20.60;61.30;;;;;;4950528;28;90991;-87
2021/12/26 12:34:57;;;;;;;31.80;10.20;;;20.60;60.50;;;;;;4952272;28;87286;-86
2021/12/26 12:37:33;;;;;;;22.60;9.80;;;20.60;60.10;;;;;;4949303;28;88016;-84
2021/12/26 12:43:06;;;;;;;22.02;9.65;;;20.60;60.10;;;;;;4952807;28;88028;-81
2021/12/26 12:45:52;;;;;;;26.42;9.88;;;20.60;60.10;;;;;;4952653;28;87354;-87
2021/12/26 12:48:25;;;;;;;29.10;9.65;;;20.70;60.30;;;;;;4952432;28;87448;-87
2021/12/26 12:51:15;;;;;;;20.98;8.60;;;20.60;60.30;;;;;;4953035;28;86899;-83
2021/12/26 12:53:45;;;;;;;22.83;9.38;;;20.60;60.00;;;;;;4898526;28;89043;-84
2021/12/26 12:56:33;;;;;;;23.40;10.00;;;20.60;60.60;;;;;;4952407;28;87336;-80
2021/12/26 12:59:19;;;;;;;34.03;10.00;;;20.60;61.00;;;;;;4952883;28;87707;-90
2021/12/26 13:01:52;;;;;;;24.90;11.40;;;20.60;61.50;;;;;;4951468;28;87562;-87